Schedule Details

Flight Number: CPX11
Departure: Chek Lap Kok International (VHHH) at N/A
Arrival: Ted Stevens Anchorage International Airport (PANC) at N/A
Route: OCEAN V3 ENVAR M750 MEXIR M750 BUNGU Y81 SYOYU Y809 SPEAR Y808 PEXEL A590 POWAL A590 PINSO A590 HAMND NEELL6


Current Weather Information
VHHH 192300Z 04008KT 020V090 6000 -SHRA FEW008 SCT028 24/22 Q1018 NOSIG
PANC 192253Z 36004KT 10SM FEW035 SCT080 M01/M11 A3015 RMK AO2 SLP210 T10111106